Time;durP1;ratioP1;P1;durP2;ratioP2;P2;SDS_P1;SDS_P2;PMS_P1;PMS_P2;Temp;Humidity;BMP_temperature;BMP_pressure;BME280_temperature;BME280_humidity;BME280_pressure;Samples;Min_cycle;Max_cycle;Signal;HPM_P1;HPM_P2
2023/06/02 00:02:14;;;;;;;10.00;5.18;;;12.60;98.90;;;;;;5053031;28;20078;-50
2023/06/02 00:05:01;;;;;;;14.07;5.85;;;12.60;99.00;;;;;;5054142;28;20090;-48
2023/06/02 00:07:48;;;;;;;12.25;5.60;;;12.40;99.10;;;;;;5052919;28;20036;-48
2023/06/02 00:10:34;;;;;;;15.27;5.13;;;12.30;99.20;;;;;;5053761;28;20112;-48
2023/06/02 00:13:21;;;;;;;11.75;5.45;;;12.30;99.30;;;;;;5041274;28;20029;-48
2023/06/02 00:16:07;;;;;;;11.65;5.75;;;12.40;99.30;;;;;;5034465;28;20055;-49
2023/06/02 00:18:54;;;;;;;11.73;6.10;;;12.40;99.20;;;;;;5033997;28;20108;-51
2023/06/02 00:21:45;;;;;;;12.48;5.63;;;12.10;99.70;;;;;;5034577;28;20075;-47
2023/06/02 00:24:32;;;;;;;13.30;5.50;;;12.10;99.80;;;;;;5049369;28;20103;-50
2023/06/02 00:27:18;;;;;;;11.30;5.47;;;12.10;99.70;;;;;;5052036;28;20039;-52
2023/06/02 00:30:04;;;;;;;14.20;6.00;;;12.00;99.80;;;;;;5052151;28;20638;-47
2023/06/02 00:32:50;;;;;;;12.05;6.40;;;12.00;99.90;;;;;;5053586;28;20044;-49
2023/06/02 00:35:36;;;;;;;8.93;5.95;;;12.00;99.90;;;;;;5052568;28;20037;-47
2023/06/02 00:38:22;;;;;;;10.23;4.85;;;11.80;99.90;;;;;;5054348;28;20025;-49
2023/06/02 00:41:08;;;;;;;13.32;5.85;;;11.70;99.90;;;;;;5055167;28;20052;-47
2023/06/02 00:43:54;;;;;;;11.73;6.05;;;11.80;99.90;;;;;;5052083;28;20139;-48
2023/06/02 00:46:40;;;;;;;17.23;5.50;;;11.70;99.90;;;;;;5052652;28;20041;-48
2023/06/02 00:49:26;;;;;;;12.77;5.70;;;11.80;99.90;;;;;;5052333;28;20378;-50
2023/06/02 00:52:15;;;;;;;11.65;5.68;;;11.70;99.90;;;;;;5039758;28;20074;-50
2023/06/02 00:55:02;;;;;;;15.32;6.63;;;11.70;99.90;;;;;;5033782;28;20513;-47
2023/06/02 00:57:51;;;;;;;13.02;5.53;;;11.60;99.90;;;;;;5033155;28;20097;-49
2023/06/02 01:00:38;;;;;;;11.63;5.05;;;11.70;99.90;;;;;;5033929;28;20037;-48
2023/06/02 01:03:26;;;;;;;14.55;5.65;;;11.60;99.90;;;;;;5032473;28;20474;-48
2023/06/02 01:06:15;;;;;;;14.73;5.75;;;11.60;99.90;;;;;;5033323;28;20025;-49
2023/06/02 01:09:12;;;;;;;15.30;5.68;;;11.60;99.90;;;;;;5033398;28;20120;-50
2023/06/02 01:11:59;;;;;;;12.13;6.13;;;11.60;99.90;;;;;;5032574;28;20449;-48
2023/06/02 01:14:46;;;;;;;16.17;6.15;;;11.40;99.90;;;;;;5033499;28;20037;-49
2023/06/02 01:17:35;;;;;;;13.32;4.93;;;11.40;99.90;;;;;;5032468;28;20108;-48
2023/06/02 01:20:23;;;;;;;13.07;6.30;;;11.30;99.90;;;;;;5047508;28;20029;-48
2023/06/02 01:23:21;;;;;;;11.23;5.38;;;11.40;99.90;;;;;;5051906;28;20029;-48
2023/06/02 01:26:08;;;;;;;12.40;5.13;;;11.30;99.90;;;;;;5052026;28;20041;-48
2023/06/02 01:28:54;;;;;;;13.00;5.22;;;11.30;99.90;;;;;;5051974;28;20436;-49
2023/06/02 01:31:48;;;;;;;15.23;6.65;;;11.40;99.90;;;;;;5051066;28;20047;-49
2023/06/02 01:34:44;;;;;;;21.52;6.53;;;11.30;99.90;;;;;;5051324;28;20475;-49
2023/06/02 01:37:32;;;;;;;8.48;5.55;;;11.30;99.90;;;;;;5050911;28;20112;-48
2023/06/02 01:40:19;;;;;;;14.52;5.55;;;11.30;99.90;;;;;;5051466;28;20043;-47
2023/06/02 01:43:06;;;;;;;13.63;5.40;;;11.20;99.90;;;;;;5051227;28;20021;-50
2023/06/02 01:45:52;;;;;;;16.35;5.53;;;11.20;99.90;;;;;;5043429;28;20132;-48
2023/06/02 01:48:40;;;;;;;15.35;6.25;;;11.40;99.90;;;;;;5032288;28;20032;-50
2023/06/02 01:51:26;;;;;;;14.02;5.65;;;11.50;99.90;;;;;;5032306;28;20029;-49
2023/06/02 01:54:12;;;;;;;15.23;5.47;;;11.50;99.90;;;;;;5032506;28;20025;-51
2023/06/02 01:56:58;;;;;;;13.90;6.00;;;11.60;99.90;;;;;;5033902;28;20421;-49
2023/06/02 01:59:44;;;;;;;9.95;5.55;;;11.60;99.90;;;;;;5059018;28;20520;-47
2023/06/02 02:02:30;;;;;;;15.02;5.00;;;11.50;99.90;;;;;;5032343;28;20051;-49
2023/06/02 02:05:16;;;;;;;13.07;6.20;;;11.50;99.90;;;;;;5059003;28;20025;-49
2023/06/02 02:08:03;;;;;;;12.13;5.85;;;11.60;99.90;;;;;;5031018;28;20057;-49
2023/06/02 02:10:48;;;;;;;16.23;5.80;;;11.60;99.90;;;;;;5032606;28;20029;-48
2023/06/02 02:13:35;;;;;;;14.90;6.25;;;11.50;99.80;;;;;;5051210;28;20075;-50
2023/06/02 02:16:21;;;;;;;15.38;5.82;;;11.40;99.90;;;;;;5049825;28;20067;-48
2023/06/02 02:19:07;;;;;;;17.60;6.22;;;11.40;99.90;;;;;;5050653;28;20029;-49
2023/06/02 02:21:53;;;;;;;12.02;6.30;;;11.50;99.70;;;;;;5052933;28;20555;-48
2023/06/02 02:24:39;;;;;;;18.92;6.30;;;11.50;99.70;;;;;;5050857;28;20041;-51
2023/06/02 02:27:25;;;;;;;12.65;5.88;;;11.60;99.50;;;;;;5049364;28;20040;-49
2023/06/02 02:30:11;;;;;;;16.13;6.65;;;11.50;99.40;;;;;;5051240;28;20493;-49
2023/06/02 02:32:57;;;;;;;12.45;6.10;;;11.30;99.80;;;;;;5050906;28;20071;-52
2023/06/02 02:35:44;;;;;;;13.32;5.90;;;11.30;99.90;;;;;;5050777;28;20476;-49
2023/06/02 02:38:30;;;;;;;12.25;6.65;;;11.30;99.90;;;;;;5051227;28;20028;-49
2023/06/02 02:41:16;;;;;;;14.07;6.30;;;11.40;99.90;;;;;;5011913;28;20506;-49
2023/06/02 02:44:02;;;;;;;21.98;7.82;;;11.30;99.70;;;;;;5012038;28;20038;-49
2023/06/02 02:46:48;;;;;;;14.52;5.95;;;11.20;99.90;;;;;;5012061;28;20036;-48
2023/06/02 02:49:34;;;;;;;14.73;5.75;;;11.30;99.90;;;;;;5011534;28;20126;-48
2023/06/02 02:52:21;;;;;;;11.40;5.70;;;11.20;99.80;;;;;;5022236;28;20029;-51
2023/06/02 02:55:08;;;;;;;14.15;6.82;;;11.20;99.90;;;;;;5050136;28;20528;-53
2023/06/02 02:57:54;;;;;;;17.60;6.50;;;11.30;99.90;;;;;;5049750;28;20067;-53
2023/06/02 03:00:40;;;;;;;14.23;6.50;;;11.20;99.90;;;;;;5050615;28;20029;-50
2023/06/02 03:03:26;;;;;;;23.45;10.35;;;11.20;99.70;;;;;;5050949;28;20464;-50
2023/06/02 03:06:17;;;;;;;12.35;6.05;;;11.20;99.90;;;;;;5048617;28;20033;-49
2023/06/02 03:09:04;;;;;;;17.83;6.72;;;11.20;99.90;;;;;;5050377;28;20061;-50
2023/06/02 03:11:50;;;;;;;15.38;5.97;;;11.20;99.50;;;;;;5051225;28;20306;-48
2023/06/02 03:14:36;;;;;;;15.38;6.30;;;11.20;99.60;;;;;;5050073;28;20017;-48
2023/06/02 03:17:22;;;;;;;17.35;5.43;;;11.20;99.80;;;;;;5048824;28;20025;-48
2023/06/02 03:20:09;;;;;;;13.25;5.78;;;11.20;99.60;;;;;;5045345;28;20029;-49
2023/06/02 03:22:55;;;;;;;14.57;6.63;;;11.20;99.50;;;;;;5032075;28;20057;-52
2023/06/02 03:25:43;;;;;;;14.43;5.90;;;11.10;99.60;;;;;;5031142;28;20525;-50
2023/06/02 03:28:29;;;;;;;14.05;6.32;;;11.30;99.80;;;;;;5030902;28;20048;-48
2023/06/02 03:31:15;;;;;;;16.52;5.80;;;11.30;99.30;;;;;;5030377;28;20041;-49
2023/06/02 03:34:02;;;;;;;16.80;6.00;;;11.30;99.20;;;;;;5030953;28;20034;-50
2023/06/02 03:36:51;;;;;;;15.95;5.68;;;11.30;99.10;;;;;;5030903;28;20037;-48
2023/06/02 03:39:37;;;;;;;20.13;6.22;;;11.30;99.00;;;;;;5030854;28;20057;-48
2023/06/02 03:42:23;;;;;;;12.68;4.78;;;11.20;99.10;;;;;;5030921;28;20687;-48
2023/06/02 03:45:09;;;;;;;20.95;5.72;;;11.10;99.10;;;;;;5030412;28;20379;-49
2023/06/02 03:47:55;;;;;;;16.02;6.60;;;11.20;98.90;;;;;;5033864;28;20414;-49
2023/06/02 03:50:41;;;;;;;22.77;6.72;;;11.20;98.90;;;;;;5048852;28;20029;-47
2023/06/02 03:53:27;;;;;;;18.98;6.70;;;11.10;99.00;;;;;;5049511;28;20029;-47
2023/06/02 03:56:13;;;;;;;17.52;7.10;;;11.10;99.20;;;;;;5049691;28;20056;-46
2023/06/02 03:58:59;;;;;;;17.77;5.40;;;11.20;99.10;;;;;;5049489;28;20028;-49
2023/06/02 04:01:45;;;;;;;10.52;5.47;;;11.20;98.50;;;;;;5050319;28;20029;-53
2023/06/02 04:04:31;;;;;;;19.58;5.57;;;11.20;98.70;;;;;;5049581;28;20033;-49
2023/06/02 04:07:17;;;;;;;13.98;5.28;;;11.20;98.60;;;;;;5050847;28;20079;-50
2023/06/02 04:10:05;;;;;;;16.40;6.55;;;11.20;98.50;;;;;;5053508;28;20052;-48
2023/06/02 04:12:51;;;;;;;16.58;5.40;;;11.20;98.90;;;;;;5053918;28;20100;-49
2023/06/02 04:15:37;;;;;;;18.67;5.93;;;11.30;98.30;;;;;;5052892;28;20033;-49
2023/06/02 04:18:23;;;;;;;15.63;6.20;;;11.20;98.50;;;;;;5051662;28;20059;-46
2023/06/02 04:21:09;;;;;;;18.00;5.63;;;11.30;98.40;;;;;;5052947;28;20021;-49
2023/06/02 04:23:55;;;;;;;14.50;5.60;;;11.40;98.30;;;;;;5052647;28;20052;-51
2023/06/02 04:26:41;;;;;;;13.68;5.38;;;11.30;98.70;;;;;;5053535;28;20114;-49
2023/06/02 04:29:28;;;;;;;21.17;5.63;;;11.40;98.30;;;;;;5054111;28;20091;-52
2023/06/02 04:32:13;;;;;;;19.85;5.82;;;11.50;98.00;;;;;;5052534;28;20040;-46
2023/06/02 04:35:00;;;;;;;21.65;6.15;;;11.60;98.00;;;;;;5053086;28;20035;-50
2023/06/02 04:37:46;;;;;;;18.40;6.20;;;11.60;97.90;;;;;;5052434;28;20090;-47
2023/06/02 04:40:32;;;;;;;15.57;5.22;;;11.50;97.90;;;;;;5053596;28;20029;-47
2023/06/02 04:43:17;;;;;;;14.63;5.90;;;11.50;97.90;;;;;;5053064;28;20083;-50
2023/06/02 04:46:06;;;;;;;16.10;5.85;;;11.40;98.10;;;;;;5013444;28;20044;-46
2023/06/02 04:48:52;;;;;;;18.33;5.63;;;11.40;98.00;;;;;;5016563;28;20034;-49
2023/06/02 04:51:38;;;;;;;17.10;6.45;;;11.40;98.20;;;;;;5019431;28;20026;-48
2023/06/02 04:54:24;;;;;;;17.15;5.93;;;11.50;98.20;;;;;;5014844;28;20034;-49
2023/06/02 04:57:10;;;;;;;13.50;5.80;;;11.60;97.80;;;;;;5018051;28;20449;-51
2023/06/02 04:59:56;;;;;;;13.40;5.15;;;11.70;97.60;;;;;;5031712;28;20638;-52
2023/06/02 05:02:42;;;;;;;15.52;5.57;;;11.70;97.40;;;;;;5034469;28;20034;-50
2023/06/02 05:05:28;;;;;;;16.80;5.50;;;11.60;97.50;;;;;;5036022;28;20171;-48
2023/06/02 05:08:14;;;;;;;14.77;5.60;;;11.60;97.40;;;;;;5060450;28;20060;-51
2023/06/02 05:11:00;;;;;;;17.35;6.55;;;11.70;97.50;;;;;;5034835;28;20037;-51
2023/06/02 05:13:46;;;;;;;17.35;4.82;;;11.70;97.20;;;;;;5014616;28;20030;-51
2023/06/02 05:16:32;;;;;;;17.80;5.47;;;11.70;97.30;;;;;;5013533;28;20125;-52
2023/06/02 05:19:17;;;;;;;14.27;5.18;;;11.70;97.10;;;;;;5023122;28;20028;-51
2023/06/02 05:22:04;;;;;;;17.73;5.47;;;11.80;97.10;;;;;;5037133;28;20022;-52
2023/06/02 05:24:50;;;;;;;15.20;5.97;;;11.70;97.20;;;;;;5034955;28;20041;-49
2023/06/02 05:27:37;;;;;;;17.30;5.65;;;11.70;97.10;;;;;;5033721;28;20029;-48
2023/06/02 05:30:22;;;;;;;15.45;5.85;;;11.90;97.20;;;;;;5033895;28;20124;-48
2023/06/02 05:33:08;;;;;;;16.40;5.22;;;12.00;96.60;;;;;;5034062;28;20060;-49
2023/06/02 05:35:54;;;;;;;21.63;6.20;;;12.20;96.40;;;;;;5059772;28;20104;-52
2023/06/02 05:38:43;;;;;;;13.45;5.85;;;12.00;96.50;;;;;;5033643;28;20525;-51
2023/06/02 05:41:29;;;;;;;14.48;5.43;;;12.00;96.70;;;;;;5052161;28;20064;-50
2023/06/02 05:44:15;;;;;;;17.25;7.05;;;11.80;97.00;;;;;;5032886;28;20080;-53
2023/06/02 05:47:01;;;;;;;23.60;5.45;;;11.90;97.50;;;;;;5033311;28;20092;-49
2023/06/02 05:49:47;;;;;;;19.92;6.13;;;12.00;97.30;;;;;;5032427;28;20398;-48
2023/06/02 05:52:33;;;;;;;20.50;6.78;;;11.90;97.10;;;;;;5032799;28;20022;-48
2023/06/02 05:55:19;;;;;;;18.33;5.80;;;12.10;97.10;;;;;;5032674;28;20112;-48
2023/06/02 05:58:05;;;;;;;15.82;5.93;;;12.00;97.30;;;;;;5032429;28;20014;-47
2023/06/02 06:00:51;;;;;;;18.67;5.88;;;12.00;97.30;;;;;;5032868;28;20512;-49
2023/06/02 06:03:37;;;;;;;13.88;6.03;;;12.10;97.30;;;;;;5033216;28;20030;-48
2023/06/02 06:06:23;;;;;;;16.77;5.35;;;12.20;97.30;;;;;;5039102;28;20021;-51
2023/06/02 06:09:09;;;;;;;16.15;5.18;;;12.10;97.10;;;;;;5052172;28;20029;-48
2023/06/02 06:11:55;;;;;;;18.80;7.03;;;12.00;97.40;;;;;;5052829;28;20025;-51
2023/06/02 06:14:41;;;;;;;18.15;6.05;;;12.00;97.30;;;;;;5054346;28;20040;-49
2023/06/02 06:17:27;;;;;;;15.60;5.15;;;11.90;97.50;;;;;;5050881;28;20390;-49
2023/06/02 06:20:15;;;;;;;18.02;6.03;;;12.00;97.30;;;;;;5050852;28;20083;-48
2023/06/02 06:23:01;;;;;;;21.00;5.50;;;11.90;97.10;;;;;;5051275;28;20025;-49
2023/06/02 06:25:47;;;;;;;23.38;5.85;;;12.00;96.80;;;;;;5034541;28;20407;-48
2023/06/02 06:28:33;;;;;;;13.05;6.13;;;12.00;97.10;;;;;;5011968;28;20039;-49
2023/06/02 06:31:19;;;;;;;19.40;6.60;;;12.10;96.80;;;;;;5035401;28;20497;-50
2023/06/02 06:34:08;;;;;;;19.85;5.65;;;12.00;96.90;;;;;;5050827;28;20029;-49
2023/06/02 06:36:54;;;;;;;17.00;5.88;;;12.20;96.90;;;;;;5049901;28;20108;-49
2023/06/02 06:39:40;;;;;;;21.40;5.82;;;12.40;96.70;;;;;;5051339;28;20025;-48
2023/06/02 06:42:26;;;;;;;15.85;5.22;;;12.50;96.50;;;;;;5048018;28;20109;-48
2023/06/02 06:45:12;;;;;;;19.85;5.70;;;12.30;96.60;;;;;;5032218;28;20018;-49
2023/06/02 06:47:57;;;;;;;15.85;6.15;;;12.30;96.70;;;;;;5031301;28;20064;-49
2023/06/02 06:50:43;;;;;;;18.55;5.82;;;12.40;96.90;;;;;;5032058;28;20033;-48
2023/06/02 06:53:29;;;;;;;20.70;6.03;;;12.50;96.60;;;;;;5031327;28;20025;-49
2023/06/02 06:56:16;;;;;;;15.57;5.47;;;12.50;96.50;;;;;;5031577;28;20517;-49
2023/06/02 06:59:02;;;;;;;25.10;6.30;;;12.60;96.50;;;;;;5031543;28;20030;-48
2023/06/02 07:01:48;;;;;;;19.45;6.57;;;12.60;96.60;;;;;;5031528;28;20542;-48
2023/06/02 07:04:33;;;;;;;21.25;5.90;;;12.60;96.40;;;;;;5040231;28;20032;-50
2023/06/02 07:07:19;;;;;;;14.02;5.47;;;12.60;96.40;;;;;;5049575;28;20036;-51
2023/06/02 07:10:06;;;;;;;17.58;5.78;;;12.70;96.60;;;;;;5051795;28;20081;-48
2023/06/02 07:12:52;;;;;;;17.70;6.05;;;13.00;96.30;;;;;;5042949;28;20034;-48
2023/06/02 07:15:38;;;;;;;18.13;5.90;;;13.10;95.80;;;;;;5035742;28;20415;-50
2023/06/02 07:18:24;;;;;;;18.73;7.38;;;13.00;95.90;;;;;;5042202;28;20026;-49
2023/06/02 07:21:09;;;;;;;17.65;5.90;;;12.90;96.40;;;;;;5023959;28;20040;-54
2023/06/02 07:23:55;;;;;;;21.33;6.13;;;13.00;96.30;;;;;;5043563;28;20411;-49
2023/06/02 07:26:42;;;;;;;19.80;5.72;;;12.80;96.80;;;;;;5031643;28;20045;-49
2023/06/02 07:29:28;;;;;;;19.27;7.32;;;13.00;96.70;;;;;;5031574;28;20038;-48
2023/06/02 07:32:13;;;;;;;25.45;7.15;;;13.00;96.80;;;;;;5030776;28;20025;-49
2023/06/02 07:34:59;;;;;;;17.75;6.65;;;13.00;96.80;;;;;;5031865;28;20026;-50
2023/06/02 07:37:51;;;;;;;20.27;6.47;;;13.30;96.50;;;;;;5029631;28;20036;-50
2023/06/02 07:40:37;;;;;;;19.40;7.47;;;13.40;96.60;;;;;;5045432;28;20079;-49
2023/06/02 07:43:23;;;;;;;20.45;6.13;;;13.50;96.10;;;;;;5053535;28;20033;-51
2023/06/02 07:46:09;;;;;;;24.52;7.68;;;13.70;95.60;;;;;;5054563;28;20044;-49
2023/06/02 07:48:57;;;;;;;18.40;6.32;;;13.60;95.90;;;;;;5055083;28;20032;-51
2023/06/02 07:51:43;;;;;;;26.85;7.55;;;13.70;96.00;;;;;;5053248;28;20032;-49
2023/06/02 07:54:29;;;;;;;18.35;7.35;;;13.70;96.50;;;;;;5052611;28;20036;-51
2023/06/02 07:57:15;;;;;;;23.38;6.85;;;13.90;96.00;;;;;;5035360;28;20109;-49
2023/06/02 08:00:16;;;;;;;21.70;7.70;;;13.70;96.30;;;;;;5034834;28;20044;-50
2023/06/02 08:03:02;;;;;;;18.92;6.60;;;13.80;96.50;;;;;;5036046;28;20025;-51
2023/06/02 08:05:49;;;;;;;17.58;6.75;;;14.20;96.00;;;;;;5036162;28;20052;-49
2023/06/02 08:08:34;;;;;;;21.80;6.05;;;14.40;95.90;;;;;;5031588;28;20036;-48
2023/06/02 08:11:22;;;;;;;18.00;6.47;;;14.50;95.60;;;;;;5033356;28;20041;-49
2023/06/02 08:14:08;;;;;;;19.33;6.25;;;14.80;95.70;;;;;;5035430;28;20500;-48
2023/06/02 08:16:55;;;;;;;17.35;6.70;;;14.80;94.60;;;;;;5044387;28;20041;-49
2023/06/02 08:19:41;;;;;;;23.17;6.50;;;14.90;94.50;;;;;;5042800;28;20034;-48
2023/06/02 08:22:28;;;;;;;21.08;8.30;;;15.10;94.50;;;;;;5035578;28;20406;-48
2023/06/02 08:25:15;;;;;;;20.90;6.28;;;15.10;94.20;;;;;;5035422;28;20116;-48
2023/06/02 08:28:05;;;;;;;16.45;6.18;;;15.20;94.40;;;;;;5060895;28;20025;-46
2023/06/02 08:30:52;;;;;;;19.33;6.40;;;15.50;93.80;;;;;;5034598;28;20037;-47
2023/06/02 08:33:40;;;;;;;21.48;6.70;;;15.50;94.00;;;;;;5014255;28;20075;-49
2023/06/02 08:36:26;;;;;;;19.25;6.97;;;15.80;93.30;;;;;;5034067;28;20026;-49
2023/06/02 08:39:12;;;;;;;19.90;6.75;;;15.60;93.40;;;;;;5043359;28;20030;-51
2023/06/02 08:42:01;;;;;;;21.48;7.55;;;15.60;93.80;;;;;;5034045;28;20107;-51
2023/06/02 08:44:48;;;;;;;20.13;6.45;;;15.60;93.70;;;;;;5034385;28;20100;-48
2023/06/02 08:47:34;;;;;;;15.65;6.40;;;15.50;93.90;;;;;;5031542;28;20029;-51
2023/06/02 08:50:25;;;;;;;24.23;6.95;;;15.50;93.50;;;;;;5029302;28;20331;-52
2023/06/02 08:53:14;;;;;;;19.90;7.15;;;15.40;93.80;;;;;;5014846;28;20072;-51
2023/06/02 08:56:00;;;;;;;27.77;6.90;;;15.40;93.90;;;;;;5033897;28;20449;-52
2023/06/02 08:58:48;;;;;;;21.73;6.55;;;15.60;93.40;;;;;;5033980;28;20025;-50
2023/06/02 09:01:34;;;;;;;24.42;6.70;;;15.60;93.30;;;;;;5034150;28;20045;-50
2023/06/02 09:04:20;;;;;;;23.50;6.60;;;15.70;93.30;;;;;;5034151;28;20030;-50
2023/06/02 09:07:12;;;;;;;15.05;6.05;;;15.90;92.80;;;;;;5032877;28;20056;-47
2023/06/02 09:09:58;;;;;;;18.08;6.70;;;15.90;92.90;;;;;;5033024;28;20068;-50
2023/06/02 09:12:48;;;;;;;17.95;6.13;;;15.90;93.10;;;;;;5019294;28;20518;-49
2023/06/02 09:22:33;;;;;;;15.75;6.50;;;16.40;92.70;;;;;;6121487;22;20016;-70
2023/06/02 09:25:30;;;;;;;21.02;6.78;;;16.20;92.60;;;;;;4990706;28;20035;-72
2023/06/02 09:28:16;;;;;;;17.35;7.05;;;16.30;92.50;;;;;;4992388;28;20368;-71
2023/06/02 09:31:05;;;;;;;18.13;6.30;;;16.30;92.50;;;;;;4991615;28;20088;-72
2023/06/02 09:34:00;;;;;;;19.30;7.10;;;16.40;92.30;;;;;;4992404;28;20034;-72
2023/06/02 09:36:52;;;;;;;15.95;6.45;;;16.60;92.30;;;;;;4992052;28;20023;-73
2023/06/02 09:39:43;;;;;;;17.23;6.32;;;16.60;92.20;;;;;;4996756;28;20027;-71
2023/06/02 09:42:43;;;;;;;19.30;6.10;;;16.70;92.50;;;;;;5029695;28;20054;-72
2023/06/02 09:45:30;;;;;;;17.83;6.97;;;17.00;92.10;;;;;;5015923;28;20018;-71
2023/06/02 09:48:22;;;;;;;26.20;6.68;;;16.80;91.90;;;;;;5008198;28;20065;-73
2023/06/02 09:51:25;;;;;;;18.70;7.47;;;16.60;92.30;;;;;;4997043;28;20089;-74
2023/06/02 09:54:11;;;;;;;18.30;6.82;;;16.70;92.50;;;;;;4992595;28;20031;-72
2023/06/02 09:56:57;;;;;;;18.52;6.68;;;16.90;92.10;;;;;;4991818;28;20029;-72
2023/06/02 09:59:45;;;;;;;18.40;6.55;;;16.80;91.80;;;;;;4991411;28;20034;-72
2023/06/02 10:02:31;;;;;;;16.50;6.95;;;16.80;92.10;;;;;;4992036;28;20110;-72
2023/06/02 10:05:19;;;;;;;16.73;6.20;;;16.90;92.10;;;;;;4993408;28;20026;-72
2023/06/02 10:08:38;;;;;;;20.85;7.05;;;17.10;92.00;;;;;;4997146;28;20029;-72
2023/06/02 10:12:05;;;;;;;20.67;6.55;;;17.20;92.00;;;;;;5003016;28;20023;-71
2023/06/02 10:15:25;;;;;;;16.45;6.90;;;17.50;91.90;;;;;;5018749;28;20398;-72
2023/06/02 10:18:31;;;;;;;21.75;8.10;;;17.50;91.30;;;;;;4993631;28;20589;-71
2023/06/02 10:21:45;;;;;;;15.82;6.85;;;17.20;92.20;;;;;;4993542;28;20097;-72
2023/06/02 10:24:56;;;;;;;27.02;8.27;;;17.20;92.20;;;;;;4993573;28;20066;-71
2023/06/02 10:27:44;;;;;;;20.70;7.18;;;17.40;92.10;;;;;;4992626;28;20026;-71
2023/06/02 10:30:30;;;;;;;20.85;7.25;;;17.50;91.70;;;;;;4994038;28;20076;-72
2023/06/02 10:33:48;;;;;;;23.60;7.03;;;17.80;91.90;;;;;;5011233;28;20026;-73
2023/06/02 10:36:56;;;;;;;17.50;7.15;;;17.70;91.10;;;;;;5011036;28;20399;-71
2023/06/02 10:39:42;;;;;;;20.13;6.28;;;17.40;91.40;;;;;;5006547;28;20026;-72
2023/06/02 10:42:31;;;;;;;17.13;7.28;;;17.50;91.70;;;;;;4998101;28;20498;-72
2023/06/02 10:45:16;;;;;;;16.80;6.97;;;17.40;91.40;;;;;;5021960;28;20022;-71
2023/06/02 10:48:35;;;;;;;15.77;6.22;;;17.70;91.20;;;;;;5033778;28;20040;-71
2023/06/02 10:51:21;;;;;;;15.93;6.05;;;17.90;91.00;;;;;;5003478;28;20031;-71
2023/06/02 10:54:07;;;;;;;24.42;6.35;;;18.20;90.60;;;;;;4992850;28;20027;-72
2023/06/02 10:56:58;;;;;;;19.08;6.15;;;17.90;90.40;;;;;;4990843;28;20027;-71
2023/06/02 10:59:44;;;;;;;17.23;6.85;;;17.90;90.50;;;;;;4992911;28;20054;-71
2023/06/02 11:02:42;;;;;;;19.10;7.28;;;17.70;90.90;;;;;;5003866;28;20032;-70
2023/06/02 11:05:33;;;;;;;19.80;6.82;;;17.40;91.30;;;;;;5002131;28;20033;-70
2023/06/02 11:08:21;;;;;;;17.95;7.28;;;17.20;91.40;;;;;;5019371;28;20046;-70
2023/06/02 11:11:07;;;;;;;14.90;6.28;;;17.00;91.40;;;;;;5021506;28;20025;-70
2023/06/02 11:14:00;;;;;;;18.25;7.55;;;17.30;91.20;;;;;;4993433;28;20054;-70
2023/06/02 11:16:46;;;;;;;13.00;6.07;;;17.50;90.80;;;;;;4988913;28;20421;-70
2023/06/02 11:19:50;;;;;;;15.30;5.30;;;17.80;90.30;;;;;;4982752;28;20026;-70
2023/06/02 11:22:36;;;;;;;19.33;5.88;;;17.80;90.00;;;;;;4991603;28;20544;-71
2023/06/02 11:25:22;;;;;;;11.38;4.70;;;17.90;89.30;;;;;;4996105;28;20045;-70
2023/06/02 11:28:24;;;;;;;12.90;4.65;;;18.20;88.30;;;;;;4992928;28;20027;-71
2023/06/02 11:31:11;;;;;;;13.05;5.03;;;18.50;87.50;;;;;;4979457;28;20110;-70
2023/06/02 11:33:57;;;;;;;12.32;5.07;;;18.40;88.10;;;;;;4973716;28;20023;-71
2023/06/02 11:36:43;;;;;;;13.00;5.43;;;18.00;88.30;;;;;;4984318;28;20605;-71
2023/06/02 11:39:30;;;;;;;9.35;4.55;;;18.00;88.60;;;;;;4989689;28;20026;-71
2023/06/02 11:42:15;;;;;;;11.25;4.50;;;18.00;88.50;;;;;;4990174;28;20031;-71
2023/06/02 11:45:02;;;;;;;13.45;4.53;;;18.30;88.40;;;;;;4992673;28;20030;-72
2023/06/02 11:48:11;;;;;;;15.25;4.78;;;18.60;87.00;;;;;;4992946;28;20023;-72
2023/06/02 11:50:57;;;;;;;13.18;5.28;;;18.90;86.40;;;;;;4992571;28;20040;-71
2023/06/02 11:53:46;;;;;;;12.57;4.28;;;18.90;86.50;;;;;;4981137;28;20118;-70
2023/06/02 11:56:33;;;;;;;10.68;4.40;;;18.80;85.00;;;;;;4973977;28;20111;-71
2023/06/02 11:59:19;;;;;;;10.50;4.57;;;18.60;84.50;;;;;;4972576;28;20407;-71
2023/06/02 12:02:23;;;;;;;11.73;5.40;;;18.80;84.80;;;;;;4972914;28;20061;-72
2023/06/02 12:05:26;;;;;;;11.27;4.63;;;19.10;83.70;;;;;;4971922;28;20033;-72
2023/06/02 12:08:20;;;;;;;11.07;4.78;;;19.20;83.30;;;;;;4988899;28;20520;-71
2023/06/02 12:11:21;;;;;;;11.32;4.90;;;18.90;84.90;;;;;;4991623;28;20045;-72
2023/06/02 12:14:09;;;;;;;16.17;5.38;;;19.10;83.10;;;;;;4991188;28;20029;-72
2023/06/02 12:17:02;;;;;;;14.98;5.72;;;19.20;84.60;;;;;;5002411;28;20022;-71
2023/06/02 12:19:58;;;;;;;17.40;5.70;;;18.80;86.40;;;;;;5003454;28;20034;-71
2023/06/02 12:22:54;;;;;;;14.30;5.20;;;18.40;86.90;;;;;;4997399;28;20030;-72
2023/06/02 12:25:40;;;;;;;11.30;5.10;;;18.20;88.10;;;;;;4972133;28;20074;-71
2023/06/02 12:28:26;;;;;;;12.25;5.35;;;18.40;88.10;;;;;;4990522;28;20038;-71
2023/06/02 12:31:15;;;;;;;12.27;5.40;;;18.40;87.50;;;;;;4994169;28;20506;-71
2023/06/02 12:34:07;;;;;;;11.98;5.45;;;18.70;87.10;;;;;;4994551;28;20077;-71
2023/06/02 12:36:53;;;;;;;10.20;4.43;;;18.60;86.40;;;;;;4995643;28;20038;-70
2023/06/02 12:39:39;;;;;;;14.45;5.75;;;18.60;86.10;;;;;;4995100;28;20046;-71
2023/06/02 12:42:25;;;;;;;12.32;4.93;;;18.90;86.50;;;;;;4994035;28;20034;-71
2023/06/02 12:45:11;;;;;;;19.40;10.35;;;19.50;84.40;;;;;;4994179;28;20154;-70
2023/06/02 12:47:57;;;;;;;12.90;6.68;;;19.70;85.00;;;;;;4994861;28;20292;-70
2023/06/02 12:50:43;;;;;;;13.65;5.22;;;19.70;84.50;;;;;;4993565;28;20124;-71
2023/06/02 12:53:29;;;;;;;15.68;4.75;;;19.30;85.00;;;;;;4995089;28;20557;-70
2023/06/02 12:56:15;;;;;;;18.63;5.47;;;19.70;85.40;;;;;;4993803;28;20031;-70
2023/06/02 12:59:03;;;;;;;11.70;5.47;;;19.80;84.70;;;;;;4980279;28;20077;-72
2023/06/02 13:01:49;;;;;;;12.25;5.20;;;20.00;84.10;;;;;;4994062;28;20401;-72
2023/06/02 13:04:35;;;;;;;11.57;4.90;;;19.60;84.30;;;;;;4994175;28;20038;-70
2023/06/02 13:07:22;;;;;;;11.05;5.07;;;19.20;85.30;;;;;;4993908;28;20355;-71
2023/06/02 13:10:10;;;;;;;13.98;5.65;;;19.10;85.30;;;;;;4993104;28;20049;-72
2023/06/02 13:12:56;;;;;;;11.38;5.55;;;18.80;86.50;;;;;;4992359;28;20035;-71
2023/06/02 13:15:42;;;;;;;12.95;5.68;;;18.50;87.60;;;;;;4992718;28;20031;-71
2023/06/02 13:18:29;;;;;;;9.95;4.90;;;18.40;87.30;;;;;;4992463;28;20050;-71
2023/06/02 13:21:15;;;;;;;10.65;5.40;;;18.30;88.20;;;;;;5004350;28;20408;-71
2023/06/02 13:24:00;;;;;;;9.38;5.70;;;18.20;88.00;;;;;;5012117;28;20135;-71
2023/06/02 13:26:46;;;;;;;12.25;5.13;;;18.10;87.50;;;;;;5013648;28;20113;-72
2023/06/02 13:29:32;;;;;;;8.75;4.85;;;18.20;88.10;;;;;;5033793;28;20014;-71
2023/06/02 13:32:18;;;;;;;8.38;4.45;;;18.30;87.80;;;;;;5043754;28;20092;-71
2023/06/02 13:35:05;;;;;;;6.72;4.75;;;18.30;87.10;;;;;;4993706;28;20026;-71
2023/06/02 13:37:51;;;;;;;9.18;4.22;;;18.50;86.50;;;;;;4992874;28;20117;-71
2023/06/02 13:40:38;;;;;;;10.48;4.65;;;18.50;84.10;;;;;;4991900;28;20062;-72
2023/06/02 13:43:24;;;;;;;5.70;3.97;;;18.50;82.70;;;;;;5001414;28;20397;-71
2023/06/02 13:46:10;;;;;;;7.28;4.13;;;18.80;82.60;;;;;;5003968;28;20464;-71
2023/06/02 13:48:56;;;;;;;8.45;4.63;;;18.90;82.00;;;;;;5010940;28;20034;-70
2023/06/02 13:51:45;;;;;;;10.57;4.88;;;19.20;81.30;;;;;;5011718;28;20041;-71
2023/06/02 13:54:31;;;;;;;9.88;4.85;;;19.20;80.90;;;;;;5010300;28;20026;-71
2023/06/02 13:57:17;;;;;;;9.55;4.47;;;19.40;80.30;;;;;;5009286;28;20479;-71
2023/06/02 14:00:04;;;;;;;10.77;4.93;;;19.40;82.50;;;;;;5011622;28;20033;-71
2023/06/02 14:02:50;;;;;;;9.07;4.40;;;19.50;82.50;;;;;;5011058;28;20064;-70
2023/06/02 14:05:36;;;;;;;9.85;4.90;;;19.70;83.40;;;;;;5010051;28;20551;-70
2023/06/02 14:08:22;;;;;;;11.57;4.85;;;19.90;81.70;;;;;;5011472;28;20442;-71
2023/06/02 14:11:08;;;;;;;14.02;5.32;;;19.80;81.50;;;;;;5009818;28;20069;-71
2023/06/02 14:13:55;;;;;;;10.93;4.88;;;19.50;82.10;;;;;;4982632;28;20035;-70
2023/06/02 14:16:41;;;;;;;10.75;5.75;;;19.30;83.00;;;;;;4986574;28;20026;-71
2023/06/02 14:19:27;;;;;;;11.43;5.28;;;19.00;84.60;;;;;;4986960;28;20040;-72
2023/06/02 14:22:13;;;;;;;12.55;5.25;;;18.80;85.20;;;;;;5002693;28;20529;-72
2023/06/02 14:24:59;;;;;;;15.13;5.72;;;18.40;86.00;;;;;;4997401;28;20098;-71
2023/06/02 14:27:45;;;;;;;12.85;5.60;;;18.30;86.60;;;;;;4995799;28;20109;-72
2023/06/02 14:30:31;;;;;;;13.35;5.85;;;18.30;87.30;;;;;;5011877;28;20038;-70
2023/06/02 14:33:17;;;;;;;15.38;6.47;;;18.20;87.70;;;;;;5015907;28;20015;-71